Time;durP1;ratioP1;P1;durP2;ratioP2;P2;SDS_P1;SDS_P2;PMS_P1;PMS_P2;Temp;Humidity;BMP_temperature;BMP_pressure;BME280_temperature;BME280_humidity;BME280_pressure;Samples;Min_cycle;Max_cycle;Signal;HPM_P1;HPM_P2
2022/04/19 00:01:20;;;;;;;5.55;2.10;;;;;;;6.09;58.78;100536.41;5054898;28;20041;-68
2022/04/19 00:03:45;;;;;;;3.35;1.90;;;;;;;5.93;59.60;100538.16;5055294;28;20156;-67
2022/04/19 00:06:11;;;;;;;5.38;2.00;;;;;;;5.95;59.59;100532.97;5055370;28;20400;-67
2022/04/19 00:08:36;;;;;;;4.20;1.75;;;;;;;5.94;59.45;100531.19;5054850;28;20051;-67
2022/04/19 00:11:03;;;;;;;5.38;1.90;;;;;;;5.77;60.73;100528.56;5053415;28;20044;-67
2022/04/19 00:13:29;;;;;;;4.03;1.75;;;;;;;5.76;60.50;100524.22;5054718;28;20040;-66
2022/04/19 00:15:56;;;;;;;3.67;1.77;;;;;;;5.86;60.08;100527.69;5054744;28;20037;-67
2022/04/19 00:18:22;;;;;;;4.78;1.80;;;;;;;5.76;60.81;100525.97;5054928;28;20036;-67
2022/04/19 00:20:49;;;;;;;4.93;1.70;;;;;;;5.79;60.45;100520.75;5055011;28;20053;-68
2022/04/19 00:23:15;;;;;;;6.03;1.77;;;;;;;5.73;61.09;100521.59;5052879;28;20037;-67
2022/04/19 00:25:48;;;;;;;6.30;1.83;;;;;;;5.70;61.60;100516.38;5055070;28;20036;-68
2022/04/19 00:28:14;;;;;;;4.68;1.70;;;;;;;5.67;61.20;100506.84;5051944;28;20036;-68
2022/04/19 00:30:41;;;;;;;4.57;1.50;;;;;;;5.69;61.34;100510.31;5053724;28;20048;-68
2022/04/19 00:33:08;;;;;;;3.47;1.75;;;;;;;5.64;61.64;100511.19;5052957;28;20063;-61
2022/04/19 00:35:35;;;;;;;4.85;1.92;;;;;;;5.62;61.89;100510.31;5053024;28;20029;-67
2022/04/19 00:38:00;;;;;;;6.38;2.00;;;;;;;5.61;62.04;100513.78;5054500;28;20029;-67
2022/04/19 00:40:26;;;;;;;3.25;1.98;;;;;;;5.57;62.32;100515.50;5053918;28;20426;-68
2022/04/19 00:42:54;;;;;;;6.13;1.83;;;;;;;5.58;62.21;100513.78;5054609;28;20029;-68
2022/04/19 00:45:20;;;;;;;5.78;2.08;;;;;;;5.65;61.89;100507.69;5053712;28;20480;-68
2022/04/19 00:47:45;;;;;;;5.68;2.30;;;;;;;5.59;62.30;100492.94;5053697;28;20392;-68
2022/04/19 00:50:12;;;;;;;7.53;1.70;;;;;;;5.61;62.68;100500.75;5052919;28;20025;-67
2022/04/19 00:52:38;;;;;;;4.75;2.15;;;;;;;5.61;62.71;100491.19;5054791;28;20033;-67
2022/04/19 00:55:07;;;;;;;4.60;2.00;;;;;;;5.56;62.98;100500.75;5052390;28;20050;-66
2022/04/19 00:57:35;;;;;;;4.05;2.00;;;;;;;5.56;63.55;100486.84;5052273;28;20128;-68
2022/04/19 01:00:01;;;;;;;6.78;2.15;;;;;;;5.74;62.63;100481.63;5057491;28;20041;-68
2022/04/19 01:02:27;;;;;;;3.65;1.80;;;;;;;5.84;62.73;100482.50;5054075;28;20038;-68
2022/04/19 01:04:56;;;;;;;3.88;2.10;;;;;;;5.95;62.15;100474.72;5056005;28;20037;-67
2022/04/19 01:07:22;;;;;;;4.50;2.20;;;;;;;6.02;62.15;100466.84;5052187;28;20041;-69
2022/04/19 01:09:48;;;;;;;6.63;2.10;;;;;;;6.07;61.92;100466.88;5053855;28;20079;-69
2022/04/19 01:15:07;;;;;;;5.03;2.10;;;;;;;6.07;62.70;100474.69;5050224;28;20079;-69
2022/04/19 01:17:39;;;;;;;5.93;2.00;;;;;;;6.12;61.94;100463.38;5053632;28;20469;-68
2022/04/19 01:20:05;;;;;;;4.22;1.90;;;;;;;6.01;62.55;100461.66;5054712;28;20051;-68
2022/04/19 01:22:34;;;;;;;5.57;2.10;;;;;;;6.09;62.19;100460.75;5053609;28;20075;-68
2022/04/19 01:25:00;;;;;;;3.05;1.90;;;;;;;6.08;62.48;100461.63;5052787;28;20060;-65
2022/04/19 01:27:25;;;;;;;6.75;2.13;;;;;;;6.10;62.30;100457.31;5052658;28;20065;-68
2022/04/19 01:29:53;;;;;;;4.38;1.98;;;;;;;6.09;62.33;100458.16;5053485;28;20037;-68
2022/04/19 01:32:20;;;;;;;5.95;2.05;;;;;;;6.08;62.88;100445.97;5052869;28;20032;-69
2022/04/19 01:34:46;;;;;;;4.18;1.92;;;;;;;6.07;62.63;100457.28;5049996;28;20024;-69
2022/04/19 01:37:12;;;;;;;4.13;1.98;;;;;;;6.01;63.28;100453.81;5050494;28;20703;-68
2022/04/19 01:42:21;;;;;;;4.60;1.38;;;;;;;6.00;63.50;100473.81;5051701;28;20071;-68
2022/04/19 01:44:47;;;;;;;7.05;2.05;;;;;;;6.04;63.30;100465.13;5052766;28;20061;-68
2022/04/19 01:47:13;;;;;;;3.90;1.90;;;;;;;6.02;63.88;100460.78;5052972;28;20036;-70
2022/04/19 01:49:38;;;;;;;5.90;1.80;;;;;;;6.07;63.74;100448.59;5050910;28;20044;-68
2022/04/19 01:52:04;;;;;;;6.40;2.05;;;;;;;6.17;63.49;100469.44;5051570;28;20041;-68
2022/04/19 01:54:30;;;;;;;5.30;1.60;;;;;;;6.30;62.83;100454.59;5050342;28;20048;-68
2022/04/19 01:56:56;;;;;;;4.18;1.80;;;;;;;6.41;62.45;100458.06;5051163;28;20037;-69
2022/04/19 01:59:22;;;;;;;3.55;1.33;;;;;;;6.40;62.86;100442.41;5052022;28;20033;-68
2022/04/19 02:01:48;;;;;;;8.13;2.20;;;;;;;6.44;62.64;100451.09;5052502;28;20033;-68
2022/04/19 02:04:15;;;;;;;4.80;1.50;;;;;;;6.55;62.26;100454.53;5053332;28;20025;-68
2022/04/19 02:06:41;;;;;;;7.55;1.83;;;;;;;6.52;62.48;100452.81;5055739;28;20029;-69
2022/04/19 02:09:07;;;;;;;5.25;1.60;;;;;;;6.52;62.63;100455.41;5049777;28;20078;-65
2022/04/19 02:11:32;;;;;;;6.75;1.88;;;;;;;6.54;62.61;100451.06;5053009;28;20115;-67
2022/04/19 02:13:59;;;;;;;4.75;1.58;;;;;;;6.52;62.84;100452.81;5051200;28;20040;-69
2022/04/19 02:16:24;;;;;;;5.72;1.70;;;;;;;6.62;62.35;100464.06;5052729;28;20594;-69
2022/04/19 02:18:50;;;;;;;3.78;1.70;;;;;;;6.70;62.23;100461.41;5052271;28;20124;-69
2022/04/19 02:21:15;;;;;;;4.88;2.15;;;;;;;6.65;62.62;100459.69;5052024;28;20039;-69
2022/04/19 02:23:40;;;;;;;4.13;1.67;;;;;;;6.72;62.30;100450.09;5052145;28;20163;-69
2022/04/19 02:26:06;;;;;;;3.67;1.75;;;;;;;6.81;61.88;100460.50;5052697;28;20037;-67
2022/04/19 02:28:31;;;;;;;4.85;2.00;;;;;;;6.84;61.94;100457.88;5051103;28;20036;-68
2022/04/19 02:30:57;;;;;;;3.67;1.77;;;;;;;6.85;61.93;100445.69;5050068;28;20025;-68
2022/04/19 02:33:23;;;;;;;3.42;1.52;;;;;;;6.81;62.19;100449.19;5051659;28;20033;-66
2022/04/19 02:35:49;;;;;;;2.63;1.60;;;;;;;6.81;62.15;100454.41;5052032;28;20464;-68
2022/04/19 02:38:14;;;;;;;3.88;1.80;;;;;;;6.89;61.91;100457.84;5052269;28;20443;-68
2022/04/19 02:40:40;;;;;;;4.68;1.55;;;;;;;6.82;62.52;100440.47;5052201;28;20431;-68
2022/04/19 02:43:05;;;;;;;5.32;1.80;;;;;;;6.89;62.24;100436.94;5037495;28;20047;-68
2022/04/19 02:45:31;;;;;;;4.25;1.88;;;;;;;7.01;61.85;100441.25;5052550;28;20037;-69
2022/04/19 02:48:08;;;;;;;5.22;1.80;;;;;;;6.98;62.52;100436.91;5051598;28;20392;-68
2022/04/19 02:50:40;;;;;;;4.93;1.85;;;;;;;6.88;62.69;100449.16;5051768;28;20542;-68
2022/04/19 02:53:05;;;;;;;5.75;1.63;;;;;;;6.99;61.87;100435.16;5052035;28;20037;-68
2022/04/19 02:55:31;;;;;;;6.32;1.95;;;;;;;6.91;62.37;100450.88;5050488;28;20142;-68
2022/04/19 02:57:56;;;;;;;7.47;2.17;;;;;;;6.93;62.47;100449.13;5052513;28;20091;-69
2022/04/19 03:00:23;;;;;;;4.47;2.10;;;;;;;6.92;62.45;100452.63;5051632;28;20480;-68
2022/04/19 03:02:49;;;;;;;4.22;1.92;;;;;;;6.95;62.62;100436.06;5051078;28;20041;-68
2022/04/19 03:05:15;;;;;;;8.40;2.03;;;;;;;6.90;62.58;100423.00;5050768;28;20055;-68
2022/04/19 03:07:41;;;;;;;6.15;1.80;;;;;;;6.81;63.38;100428.28;5052584;28;20525;-70
2022/04/19 03:10:06;;;;;;;4.05;2.13;;;;;;;6.82;63.33;100443.97;5051162;28;20029;-69
2022/04/19 03:12:32;;;;;;;7.05;2.10;;;;;;;6.79;63.50;100432.69;5051708;28;20392;-69
2022/04/19 03:14:58;;;;;;;5.10;1.70;;;;;;;6.82;63.52;100435.25;5051522;28;20037;-69
2022/04/19 03:17:23;;;;;;;5.65;2.00;;;;;;;6.81;63.77;100441.34;5052211;28;20072;-69
2022/04/19 03:19:49;;;;;;;3.92;1.85;;;;;;;6.85;63.65;100415.19;5052161;28;20362;-69
2022/04/19 03:22:14;;;;;;;4.85;1.83;;;;;;;6.86;63.73;100436.97;5049655;28;20041;-69
2022/04/19 03:27:41;;;;;;;5.03;2.20;;;;;;;6.89;63.90;100422.16;5050911;28;20495;-68
2022/04/19 03:30:14;;;;;;;3.97;2.05;;;;;;;6.92;64.01;100434.34;5050805;28;20472;-65
2022/04/19 03:32:43;;;;;;;6.73;2.23;;;;;;;6.87;64.36;100446.56;5053845;28;20387;-65
2022/04/19 03:35:10;;;;;;;6.10;2.30;;;;;;;6.91;64.25;100430.00;5056814;28;20408;-67
2022/04/19 03:37:36;;;;;;;6.25;2.42;;;;;;;6.93;64.38;100433.44;5056557;28;20476;-68
2022/04/19 03:40:01;;;;;;;6.30;2.47;;;;;;;6.88;64.80;100430.88;5054373;28;20075;-68
2022/04/19 03:42:27;;;;;;;6.70;1.80;;;;;;;6.96;64.39;100448.25;5057880;28;20128;-68
2022/04/19 03:44:52;;;;;;;4.95;2.38;;;;;;;7.00;64.54;100440.38;5056486;28;20033;-68
2022/04/19 03:47:18;;;;;;;4.82;2.35;;;;;;;6.91;64.86;100441.31;5054275;28;20423;-68
2022/04/19 03:49:43;;;;;;;5.53;1.98;;;;;;;6.96;65.07;100432.56;5055216;28;20434;-69
2022/04/19 03:52:09;;;;;;;6.03;2.00;;;;;;;7.06;64.49;100437.75;5055353;28;20037;-67
2022/04/19 03:54:36;;;;;;;5.82;2.13;;;;;;;7.07;64.53;100436.84;5055084;28;20044;-68
2022/04/19 03:57:04;;;;;;;6.38;2.28;;;;;;;7.01;64.96;100436.88;5054522;28;20063;-69
2022/04/19 03:59:31;;;;;;;5.95;2.03;;;;;;;7.05;65.09;100427.28;5059825;28;20444;-68
2022/04/19 04:01:57;;;;;;;6.63;2.20;;;;;;;7.05;64.96;100427.28;5053365;28;20036;-68
2022/04/19 04:04:22;;;;;;;4.43;2.10;;;;;;;7.09;65.16;100423.75;5031200;28;20049;-67
2022/04/19 04:06:48;;;;;;;4.82;1.98;;;;;;;7.10;65.13;100421.16;5054906;28;20044;-67
2022/04/19 04:09:14;;;;;;;4.82;2.15;;;;;;;7.09;65.39;100431.59;5053572;28;20068;-66
2022/04/19 04:11:39;;;;;;;5.10;2.67;;;;;;;7.20;64.81;100436.78;5061075;28;20158;-68
2022/04/19 04:14:04;;;;;;;6.78;2.90;;;;;;;7.21;64.92;100430.66;5053841;28;20102;-67
2022/04/19 04:16:30;;;;;;;8.13;2.95;;;;;;;7.21;65.04;100441.09;5054880;28;20047;-67
2022/04/19 04:18:55;;;;;;;4.88;2.75;;;;;;;7.22;65.01;100435.00;5059618;28;20055;-67
2022/04/19 04:21:21;;;;;;;6.45;2.67;;;;;;;7.22;64.98;100446.34;5056010;28;20032;-67
2022/04/19 04:23:46;;;;;;;7.60;2.70;;;;;;;7.20;65.03;100436.78;5053610;28;20598;-67
2022/04/19 04:26:11;;;;;;;4.28;2.42;;;;;;;7.28;64.95;100461.09;5054223;28;20082;-67
2022/04/19 04:28:37;;;;;;;5.75;2.15;;;;;;;7.32;65.11;100450.63;5058301;28;20052;-67
2022/04/19 04:31:02;;;;;;;7.97;2.10;;;;;;;7.31;64.92;100453.25;5054237;28;20102;-65
2022/04/19 04:33:28;;;;;;;3.63;2.17;;;;;;;7.34;64.68;100455.81;5052179;28;20403;-67
2022/04/19 04:35:53;;;;;;;6.25;2.47;;;;;;;7.39;64.93;100454.91;5054677;28;20033;-67
2022/04/19 04:38:18;;;;;;;6.95;2.35;;;;;;;7.43;64.69;100463.63;5055990;28;20373;-67
2022/04/19 04:40:44;;;;;;;5.82;2.92;;;;;;;7.54;64.29;100453.94;5053222;28;20036;-67
2022/04/19 04:43:09;;;;;;;7.28;2.90;;;;;;;7.51;64.61;100450.47;5053830;28;20548;-67
2022/04/19 04:45:35;;;;;;;5.40;2.40;;;;;;;7.61;64.18;100465.19;5053185;28;20040;-65
2022/04/19 04:50:44;;;;;;;5.35;2.25;;;;;;;7.64;64.41;100466.06;5055199;28;20129;-67
2022/04/19 04:53:09;;;;;;;4.15;1.88;;;;;;;7.78;63.60;100468.56;5053996;28;20120;-67
2022/04/19 04:55:35;;;;;;;4.28;2.13;;;;;;;7.92;63.21;100465.81;5056639;28;20074;-66
2022/04/19 04:58:01;;;;;;;6.15;1.63;;;;;;;8.03;62.96;100471.81;5055082;28;20029;-65
2022/04/19 05:00:28;;;;;;;4.35;1.85;;;;;;;8.14;62.69;100472.56;5052378;28;20033;-68
2022/04/19 05:02:54;;;;;;;5.10;1.85;;;;;;;8.24;62.18;100467.22;5053244;28;20404;-67
2022/04/19 05:05:20;;;;;;;4.20;2.13;;;;;;;8.31;61.80;100455.81;5053877;28;20029;-68
2022/04/19 05:07:45;;;;;;;6.75;3.65;;;;;;;8.37;60.91;100459.25;5057213;28;20089;-69
2022/04/19 05:10:11;;;;;;;5.07;3.25;;;;;;;8.43;60.05;100455.72;5060398;28;20033;-68
2022/04/19 05:12:37;;;;;;;7.25;4.05;;;;;;;8.61;59.33;100463.31;5057520;28;20041;-68
2022/04/19 05:15:04;;;;;;;7.60;3.50;;;;;;;8.67;58.46;100470.25;5053688;28;20491;-68
2022/04/19 05:17:29;;;;;;;5.00;2.83;;;;;;;8.76;57.91;100477.13;5052130;28;20041;-67
2022/04/19 05:19:55;;;;;;;6.80;2.60;;;;;;;8.93;57.47;100479.53;5052801;28;20060;-66
2022/04/19 05:22:21;;;;;;;4.93;2.42;;;;;;;8.84;57.58;100475.28;5054685;28;20121;-68
2022/04/19 05:24:47;;;;;;;5.88;3.00;;;;;;;9.03;57.15;100475.91;5054884;28;20028;-68
2022/04/19 05:27:12;;;;;;;16.98;9.65;;;;;;;9.05;56.83;100480.22;5052940;28;20037;-68
2022/04/19 05:29:38;;;;;;;12.02;7.75;;;;;;;9.13;56.44;100478.34;5057430;28;20079;-68
2022/04/19 05:32:04;;;;;;;10.63;7.03;;;;;;;9.13;56.23;100470.50;5052922;28;20146;-68
2022/04/19 05:34:30;;;;;;;6.72;3.45;;;;;;;9.10;56.20;100474.94;5052953;28;20574;-65
2022/04/19 05:36:56;;;;;;;5.93;2.60;;;;;;;9.22;56.22;100472.16;5050367;28;20057;-68
2022/04/19 05:39:21;;;;;;;5.22;2.42;;;;;;;9.06;56.24;100479.34;5054048;28;20382;-67
2022/04/19 05:41:47;;;;;;;7.40;2.85;;;;;;;9.10;56.02;100467.94;5053080;28;20041;-67
2022/04/19 05:44:12;;;;;;;5.03;2.08;;;;;;;9.27;55.82;100474.69;5053946;28;20060;-67
2022/04/19 05:46:38;;;;;;;3.70;2.17;;;;;;;9.43;55.64;100480.56;5053019;28;20261;-65
2022/04/19 05:49:06;;;;;;;5.32;2.65;;;;;;;9.52;55.25;100477.81;5035064;28;20139;-67
2022/04/19 05:51:33;;;;;;;6.57;3.03;;;;;;;9.67;54.87;100477.56;5053309;28;20464;-66
2022/04/19 05:53:58;;;;;;;4.13;2.70;;;;;;;9.87;54.45;100483.34;5053121;28;20037;-66
2022/04/19 05:56:24;;;;;;;5.40;3.08;;;;;;;9.95;53.95;100475.34;5053259;28;20083;-66
2022/04/19 05:58:49;;;;;;;7.65;2.75;;;;;;;10.05;54.00;100476.91;5053090;28;20837;-66
2022/04/19 06:01:15;;;;;;;6.82;3.05;;;;;;;10.27;53.50;100487.03;5035373;28;20391;-67
2022/04/19 06:06:25;;;;;;;10.52;8.23;;;;;;;10.56;52.82;100479.47;5053139;28;20063;-66
2022/04/19 06:08:50;;;;;;;8.75;6.20;;;;;;;10.66;52.32;100487.19;5050026;28;20472;-65
2022/04/19 06:11:16;;;;;;;16.00;10.25;;;;;;;10.82;52.18;100488.59;5050225;28;20379;-64
2022/04/19 06:13:42;;;;;;;20.02;14.75;;;;;;;10.88;51.91;100493.69;5049131;28;20088;-63
2022/04/19 06:16:08;;;;;;;12.40;9.57;;;;;;;10.99;51.44;100483.81;5044091;28;20460;-63
2022/04/19 06:18:34;;;;;;;17.13;14.55;;;;;;;11.07;51.42;100495.03;5051458;28;20426;-65
2022/04/19 06:21:00;;;;;;;15.27;11.65;;;;;;;11.13;51.03;100490.53;5052438;28;20036;-65
2022/04/19 06:23:26;;;;;;;9.65;8.23;;;;;;;11.00;50.07;100490.81;5051687;28;20045;-65
2022/04/19 06:25:52;;;;;;;9.35;5.15;;;;;;;11.19;50.33;100486.03;5052206;28;20455;-66
2022/04/19 06:28:17;;;;;;;9.18;5.15;;;;;;;11.37;49.73;100490.00;5042744;28;20124;-65
2022/04/19 06:30:43;;;;;;;7.47;3.92;;;;;;;11.40;49.11;100489.91;5049053;28;20090;-66
2022/04/19 06:33:09;;;;;;;5.53;3.20;;;;;;;11.70;48.41;100488.34;5065804;28;20072;-65
2022/04/19 06:35:34;;;;;;;7.43;3.60;;;;;;;11.91;46.52;100492.22;5053057;28;20057;-64
2022/04/19 06:38:00;;;;;;;9.57;4.82;;;;;;;12.31;46.03;100489.41;5051977;28;20108;-64
2022/04/19 06:40:25;;;;;;;10.68;4.43;;;;;;;12.44;44.83;100508.38;5051115;28;20044;-65
2022/04/19 06:42:51;;;;;;;5.15;2.97;;;;;;;12.46;44.73;100485.50;5050999;28;20391;-65
2022/04/19 06:45:17;;;;;;;7.82;2.47;;;;;;;12.48;43.53;100504.75;5051588;28;20032;-65
2022/04/19 06:47:44;;;;;;;6.72;2.95;;;;;;;12.51;44.36;100496.78;5049194;28;20063;-66
2022/04/19 06:50:10;;;;;;;5.47;2.88;;;;;;;12.57;44.35;100503.66;5050489;28;20500;-65
2022/04/19 06:52:36;;;;;;;10.52;3.17;;;;;;;12.47;43.89;100497.75;5050365;28;20332;-64
2022/04/19 06:55:02;;;;;;;8.27;2.63;;;;;;;12.64;43.51;100510.47;5055980;28;20531;-66
2022/04/19 06:57:28;;;;;;;7.75;3.10;;;;;;;12.69;43.54;100503.31;5052688;28;20040;-65
2022/04/19 06:59:53;;;;;;;6.32;3.00;;;;;;;12.60;42.79;100500.06;5050112;28;20033;-65
2022/04/19 07:02:19;;;;;;;6.65;2.35;;;;;;;12.63;43.21;100513.16;5050840;28;20473;-66
2022/04/19 07:04:44;;;;;;;4.55;2.50;;;;;;;12.37;43.17;100511.22;5051289;28;20033;-66
2022/04/19 07:07:10;;;;;;;3.33;1.88;;;;;;;12.36;43.44;100514.75;5055521;28;20036;-67
2022/04/19 07:09:35;;;;;;;3.90;1.80;;;;;;;12.35;42.35;100510.41;5054357;28;20495;-67
2022/04/19 07:12:01;;;;;;;6.68;2.15;;;;;;;12.50;42.60;100513.50;5054760;28;20756;-67
2022/04/19 07:14:27;;;;;;;3.85;2.00;;;;;;;12.65;41.97;100504.31;5056494;28;20157;-66
2022/04/19 07:16:52;;;;;;;4.20;1.95;;;;;;;12.55;42.00;100529.19;5054335;28;20486;-65
2022/04/19 07:19:18;;;;;;;6.13;3.30;;;;;;;12.88;41.89;100524.72;5053544;28;20547;-66
2022/04/19 07:27:13;;;;;;;3.10;1.60;;;;;;;12.87;41.44;100527.41;5032073;28;20139;-66
2022/04/19 07:29:39;;;;;;;4.60;1.67;;;;;;;12.88;41.36;100537.03;5056427;28;20491;-65
2022/04/19 07:32:04;;;;;;;8.45;3.33;;;;;;;13.02;41.34;100527.84;5056123;28;20040;-66
2022/04/19 07:34:30;;;;;;;4.85;2.53;;;;;;;13.07;41.09;100533.84;5055507;28;20423;-64
2022/04/19 07:36:57;;;;;;;4.60;2.08;;;;;;;13.11;40.76;100536.38;5056721;28;20029;-67
2022/04/19 07:39:22;;;;;;;4.22;1.80;;;;;;;13.11;40.69;100533.75;5055153;28;20075;-64
2022/04/19 07:41:48;;;;;;;3.20;1.88;;;;;;;13.34;40.36;100531.31;5054426;28;20092;-66
2022/04/19 07:44:15;;;;;;;5.30;2.60;;;;;;;13.48;40.62;100534.38;5055632;28;20037;-64
2022/04/19 07:46:42;;;;;;;5.55;3.50;;;;;;;13.51;40.28;100536.94;5053643;28;20036;-65
2022/04/19 07:49:08;;;;;;;6.38;3.75;;;;;;;13.58;40.31;100531.47;5054673;28;20041;-66
2022/04/19 07:51:35;;;;;;;7.50;5.13;;;;;;;13.67;40.43;100533.81;5054670;28;20044;-66
2022/04/19 07:54:00;;;;;;;10.32;4.35;;;;;;;13.71;39.84;100524.88;5054078;28;20029;-66
2022/04/19 07:56:26;;;;;;;11.75;5.45;;;;;;;13.50;40.36;100540.50;5055274;28;20029;-66
2022/04/19 07:58:52;;;;;;;7.38;3.78;;;;;;;13.62;39.86;100536.59;5055095;28;20484;-66
2022/04/19 08:01:18;;;;;;;4.28;2.33;;;;;;;13.53;40.12;100529.84;5055159;28;20052;-65
2022/04/19 08:03:44;;;;;;;8.65;4.78;;;;;;;13.33;40.45;100531.38;5054622;28;20079;-66
2022/04/19 08:06:10;;;;;;;6.85;3.13;;;;;;;13.11;40.56;100531.97;5053368;28;20056;-64
2022/04/19 08:08:36;;;;;;;26.80;10.35;;;;;;;13.21;40.76;100527.31;5052696;28;20404;-64
2022/04/19 08:11:03;;;;;;;32.00;15.18;;;;;;;13.07;40.99;100531.19;5050144;28;20067;-65
2022/04/19 08:13:29;;;;;;;14.80;7.57;;;;;;;13.45;40.46;100537.13;5041623;28;20435;-64
2022/04/19 08:15:55;;;;;;;6.45;3.25;;;;;;;13.71;40.04;100535.44;5049919;28;20385;-66
2022/04/19 08:18:21;;;;;;;5.32;3.00;;;;;;;14.23;39.23;100525.78;5052603;28;20044;-64
2022/04/19 08:20:47;;;;;;;13.05;6.00;;;;;;;14.67;38.83;100524.25;5050230;28;20057;-65
2022/04/19 08:23:13;;;;;;;6.53;3.33;;;;;;;14.65;37.80;100538.47;5055153;28;20028;-65
2022/04/19 08:25:40;;;;;;;2.95;2.00;;;;;;;14.72;37.67;100534.66;5054474;28;20043;-64
2022/04/19 08:28:07;;;;;;;5.93;3.40;;;;;;;14.90;37.80;100533.13;5054691;28;20063;-64
2022/04/19 08:30:33;;;;;;;8.05;2.30;;;;;;;14.76;37.90;100530.97;5053741;28;20098;-64
2022/04/19 08:32:59;;;;;;;5.53;2.42;;;;;;;14.23;37.94;100537.22;5053548;28;20037;-64
2022/04/19 08:35:25;;;;;;;7.15;2.92;;;;;;;14.00;38.66;100543.28;5054398;28;20120;-66
2022/04/19 08:37:51;;;;;;;5.97;2.53;;;;;;;13.57;39.09;100540.31;5054726;28;20391;-65
2022/04/19 08:40:18;;;;;;;5.85;2.03;;;;;;;13.34;39.01;100539.25;5053377;28;20033;-64
2022/04/19 08:42:44;;;;;;;6.53;2.22;;;;;;;13.46;39.62;100538.84;5053054;28;20044;-65
2022/04/19 08:45:12;;;;;;;5.22;2.80;;;;;;;13.21;39.70;100537.84;5054140;28;20037;-64
2022/04/19 08:47:46;;;;;;;13.95;5.57;;;;;;;13.39;39.47;100547.88;5054359;28;20386;-65
2022/04/19 08:50:14;;;;;;;12.07;4.60;;;;;;;13.28;39.80;100544.69;5054408;28;20025;-65
2022/04/19 08:52:40;;;;;;;12.13;6.60;;;;;;;13.39;39.70;100537.31;5053921;28;20033;-65
2022/04/19 08:57:52;;;;;;;4.90;3.25;;;;;;;13.48;39.71;100542.28;5053947;28;20047;-66
2022/04/19 09:00:22;;;;;;;5.68;4.05;;;;;;;13.80;39.37;100540.41;5053737;28;20033;-65
2022/04/19 09:02:48;;;;;;;3.67;2.53;;;;;;;14.06;38.98;100536.94;5054658;28;20044;-65
2022/04/19 09:05:26;;;;;;;8.82;2.70;;;;;;;14.29;38.54;100546.72;5054982;28;20041;-65
2022/04/19 09:07:54;;;;;;;5.05;3.00;;;;;;;14.22;38.46;100534.63;5054702;28;20438;-65
2022/04/19 09:10:34;;;;;;;8.75;3.58;;;;;;;14.41;37.34;100545.44;5053554;28;20373;-67
2022/04/19 09:13:06;;;;;;;6.28;3.25;;;;;;;14.60;36.68;100543.03;5054810;28;20454;-67
2022/04/19 09:15:36;;;;;;;7.28;3.28;;;;;;;14.57;37.48;100551.94;5050012;28;20036;-66
2022/04/19 09:18:02;;;;;;;6.95;3.50;;;;;;;14.64;37.62;100544.66;5052340;28;20029;-65
2022/04/19 09:20:28;;;;;;;6.53;3.90;;;;;;;14.80;37.57;100548.47;5053073;28;20052;-64
2022/04/19 09:23:08;;;;;;;10.05;4.13;;;;;;;14.86;37.35;100548.25;5052964;28;20144;-65
2022/04/19 09:25:35;;;;;;;5.03;3.03;;;;;;;15.00;37.18;100555.66;5053564;28;20036;-65
2022/04/19 09:28:02;;;;;;;6.03;4.50;;;;;;;14.77;37.46;100557.38;5051847;28;20475;-66
2022/04/19 09:30:34;;;;;;;4.45;2.95;;;;;;;14.69;37.26;100555.94;5053229;28;20103;-66
2022/04/19 09:33:11;;;;;;;7.32;3.00;;;;;;;14.60;37.54;100575.66;5052950;28;20488;-65
2022/04/19 09:35:55;;;;;;;4.30;2.50;;;;;;;14.52;37.99;100560.06;5053146;28;20037;-65
2022/04/19 09:38:36;;;;;;;4.82;2.90;;;;;;;14.37;37.63;100554.41;5052337;28;20029;-65
2022/04/19 09:41:02;;;;;;;7.78;3.17;;;;;;;14.16;38.64;100554.22;5049928;28;20483;-66
2022/04/19 09:43:28;;;;;;;5.40;2.92;;;;;;;14.03;38.78;100564.31;5051511;28;20067;-66
2022/04/19 09:45:58;;;;;;;10.57;5.20;;;;;;;14.00;38.83;100572.34;5053763;28;20053;-66
2022/04/19 09:48:35;;;;;;;7.80;3.92;;;;;;;14.10;38.21;100572.91;5052889;28;20033;-65
2022/04/19 09:51:03;;;;;;;3.95;2.58;;;;;;;14.18;38.31;100565.59;5052897;28;20029;-63
2022/04/19 09:53:41;;;;;;;3.83;2.22;;;;;;;14.38;37.75;100570.19;5051960;28;20060;-64
2022/04/19 09:56:20;;;;;;;4.55;3.45;;;;;;;14.49;37.15;100570.72;5048696;28;20052;-63
2022/04/19 09:58:56;;;;;;;8.02;3.65;;;;;;;14.49;36.79;100578.66;5065902;28;20040;-65
2022/04/19 10:09:37;;;;;;;6.10;2.83;;;;;;;15.19;36.37;100561.13;5053044;28;20033;-65
2022/04/19 10:12:06;;;;;;;9.90;4.03;;;;;;;15.28;36.76;100568.75;5056185;28;20388;-66
2022/04/19 10:14:32;;;;;;;6.50;3.28;;;;;;;15.17;36.88;100563.84;5053829;28;20025;-63
2022/04/19 10:16:58;;;;;;;5.88;3.08;;;;;;;15.27;36.18;100559.06;5051027;28;20044;-65
2022/04/19 10:19:25;;;;;;;5.18;2.30;;;;;;;15.15;35.76;100564.81;5052228;28;20408;-65
2022/04/19 10:21:52;;;;;;;4.32;2.30;;;;;;;15.43;35.72;100568.13;5052787;28;20037;-65
2022/04/19 10:24:18;;;;;;;4.53;2.30;;;;;;;15.84;34.91;100565.69;5057761;28;20055;-64
2022/04/19 10:26:48;;;;;;;10.05;4.85;;;;;;;16.30;33.87;100563.78;5055910;28;20396;-65
2022/04/19 10:29:23;;;;;;;4.75;2.70;;;;;;;16.34;33.10;100565.38;5057570;28;20040;-65
2022/04/19 10:32:04;;;;;;;4.45;2.60;;;;;;;16.59;33.07;100569.63;5048857;28;20041;-65
2022/04/19 10:34:33;;;;;;;4.32;2.40;;;;;;;16.83;33.47;100565.06;5050109;28;20025;-65
2022/04/19 10:37:18;;;;;;;3.20;2.03;;;;;;;17.06;31.99;100570.19;5049991;28;20380;-65
2022/04/19 10:39:48;;;;;;;8.13;3.20;;;;;;;17.02;32.11;100571.25;5049249;28;20059;-66
2022/04/19 10:42:38;;;;;;;3.85;2.80;;;;;;;17.19;31.07;100581.97;5057790;28;20032;-66
2022/04/19 10:45:10;;;;;;;6.45;3.65;;;;;;;17.22;31.58;100570.34;5047548;28;20387;-64
2022/04/19 10:47:58;;;;;;;4.70;3.00;;;;;;;17.26;30.98;100571.94;5050478;28;20064;-65
2022/04/19 10:50:40;;;;;;;3.22;1.77;;;;;;;17.14;31.59;100570.69;5063707;28;20440;-64
2022/04/19 10:53:12;;;;;;;5.95;2.35;;;;;;;16.98;30.82;100581.16;5049547;28;20056;-65
2022/04/19 10:55:53;;;;;;;4.67;2.60;;;;;;;16.96;31.51;100564.47;5049445;28;20029;-64
2022/04/19 10:58:20;;;;;;;4.18;2.95;;;;;;;16.84;32.25;100585.38;5050321;28;20127;-65
2022/04/19 11:00:56;;;;;;;5.07;2.90;;;;;;;17.11;32.21;100583.25;5050173;28;20444;-64
2022/04/19 11:03:37;;;;;;;5.45;3.38;;;;;;;17.08;31.66;100572.81;5052199;28;20033;-64
2022/04/19 11:06:28;;;;;;;4.68;2.90;;;;;;;17.00;31.73;100578.44;5051392;28;20112;-65
2022/04/19 11:09:23;;;;;;;3.42;2.10;;;;;;;16.94;31.43;100576.91;5050533;28;20025;-64
2022/04/19 11:11:50;;;;;;;3.42;2.33;;;;;;;16.88;32.21;100577.22;5046414;28;20068;-63
2022/04/19 11:14:23;;;;;;;3.60;2.42;;;;;;;16.88;32.29;100581.66;5047363;28;20037;-66
2022/04/19 11:17:12;;;;;;;3.33;2.25;;;;;;;16.66;33.23;100577.25;5051847;28;20033;-63
2022/04/19 11:19:37;;;;;;;3.95;2.17;;;;;;;16.85;33.28;100577.34;5051489;28;20048;-63
2022/04/19 11:22:03;;;;;;;4.47;2.35;;;;;;;16.89;33.32;100572.75;5052324;28;20048;-64
2022/04/19 11:25:04;;;;;;;3.75;2.58;;;;;;;17.06;32.73;100579.97;5057586;28;20128;-64
2022/04/19 11:27:54;;;;;;;5.28;2.17;;;;;;;17.08;31.75;100580.75;5049510;28;20033;-63
2022/04/19 11:30:24;;;;;;;6.68;3.83;;;;;;;17.39;31.72;100581.03;5050503;28;20064;-64
2022/04/19 11:32:52;;;;;;;5.60;3.00;;;;;;;17.25;32.17;100575.53;5053294;28;20060;-64
2022/04/19 11:35:18;;;;;;;7.25;2.92;;;;;;;17.56;32.30;100577.63;5051321;28;20041;-63
2022/04/19 11:37:45;;;;;;;5.07;2.38;;;;;;;17.89;31.98;100575.16;5050893;28;20029;-63
2022/04/19 11:48:48;;;;;;;5.18;2.50;;;;;;;18.41;31.19;100563.72;5042688;28;20048;-63
2022/04/19 11:51:15;;;;;;;3.42;2.00;;;;;;;18.47;31.13;100579.34;5042330;28;20033;-64
2022/04/19 11:53:42;;;;;;;6.30;2.47;;;;;;;18.34;33.12;100576.47;5050399;28;20039;-62
2022/04/19 11:56:09;;;;;;;4.50;2.28;;;;;;;17.38;35.29;100576.69;5055915;28;20029;-64
2022/04/19 11:58:36;;;;;;;5.75;2.50;;;;;;;16.59;36.86;100570.47;5053673;28;20041;-65
2022/04/19 12:01:05;;;;;;;3.83;2.75;;;;;;;16.26;37.96;100578.09;5056060;28;20059;-64
2022/04/19 12:03:32;;;;;;;3.78;2.40;;;;;;;15.37;39.49;100583.41;5055617;28;20036;-63
2022/04/19 12:06:08;;;;;;;4.70;2.58;;;;;;;15.51;39.67;100575.78;5050436;28;20052;-65
2022/04/19 12:08:40;;;;;;;3.35;2.40;;;;;;;15.69;39.43;100579.56;5039988;28;20037;-64
2022/04/19 12:11:25;;;;;;;5.97;2.90;;;;;;;15.23;40.19;100565.41;5045474;28;20085;-65